createdAt,value
2023-03-02T00:01:48.732Z,119.57
2023-03-02T00:04:21.641Z,164.75
2023-03-02T00:06:50.930Z,128.57
2023-03-02T00:09:19.605Z,134.00
2023-03-02T00:11:48.111Z,122.65
2023-03-02T00:14:18.027Z,126.53
2023-03-02T00:16:46.491Z,133.77
2023-03-02T00:19:14.963Z,114.63
2023-03-02T00:21:43.591Z,109.55
2023-03-02T00:24:12.097Z,125.60
2023-03-02T00:26:40.546Z,124.40
2023-03-02T00:29:09.158Z,111.88
2023-03-02T00:31:39.452Z,156.23
2023-03-02T00:34:07.876Z,119.50
2023-03-02T00:36:36.336Z,151.63
2023-03-02T00:39:05.575Z,135.57
2023-03-02T00:41:34.084Z,246.27
2023-03-02T00:44:02.528Z,257.98
2023-03-02T00:46:31.517Z,198.73
2023-03-02T00:49:01.683Z,213.95
2023-03-02T00:51:30.170Z,124.57
2023-03-02T00:54:02.820Z,232.38
2023-03-02T00:56:31.780Z,253.98
2023-03-02T00:59:00.423Z,214.52
2023-03-02T01:01:28.890Z,210.88
2023-03-02T01:03:57.626Z,207.57
2023-03-02T01:06:27.577Z,198.80
2023-03-02T01:08:56.132Z,219.10
2023-03-02T01:11:24.694Z,177.98
2023-03-02T01:13:53.386Z,244.98
2023-03-02T01:16:22.312Z,167.20
2023-03-02T01:18:50.829Z,230.20
2023-03-02T01:21:19.331Z,199.15
2023-03-02T01:23:49.129Z,173.43
2023-03-02T01:26:17.733Z,287.13
2023-03-02T01:28:46.212Z,210.25
2023-03-02T01:31:14.783Z,203.98
2023-03-02T01:33:43.257Z,197.57
2023-03-02T01:36:11.830Z,187.35
2023-03-02T01:38:40.251Z,162.77
2023-03-02T01:41:10.436Z,283.20
2023-03-02T01:43:39.332Z,304.73
2023-03-02T01:46:08.730Z,254.23
2023-03-02T01:48:47.610Z,345.60
2023-03-02T01:51:18.104Z,292.40
2023-03-02T01:53:48.544Z,259.05
2023-03-02T01:56:20.609Z,224.63
2023-03-02T01:58:51.520Z,298.88
2023-03-02T02:01:20.321Z,319.13
2023-03-02T02:03:51.177Z,390.25
2023-03-02T02:06:23.231Z,388.10
2023-03-02T02:08:52.240Z,327.50
2023-03-02T02:11:22.230Z,342.77
2023-03-02T02:13:50.704Z,287.58
2023-03-02T02:16:19.176Z,233.95
2023-03-02T02:18:47.675Z,291.58
2023-03-02T02:21:16.357Z,391.77
2023-03-02T02:23:48.853Z,262.10
2023-03-02T02:26:23.989Z,361.65
2023-03-02T02:28:57.911Z,308.23
2023-03-02T02:31:31.503Z,256.65
2023-03-02T02:34:03.842Z,420.80
2023-03-02T02:36:36.059Z,336.55
2023-03-02T02:39:06.954Z,336.05
2023-03-02T02:41:39.621Z,429.55
2023-03-02T02:44:10.610Z,387.50
2023-03-02T02:46:39.124Z,395.35
2023-03-02T02:49:22.473Z,358.00
2023-03-02T02:51:51.021Z,304.05
2023-03-02T02:54:20.387Z,276.38
2023-03-02T02:56:50.729Z,392.48
2023-03-02T02:59:22.284Z,431.42
2023-03-02T03:01:51.223Z,377.42
2023-03-02T03:04:21.578Z,286.75
2023-03-02T03:06:54.607Z,410.85
2023-03-02T03:09:23.662Z,359.05
2023-03-02T03:11:54.769Z,440.42
2023-03-02T03:14:26.380Z,424.20
2023-03-02T03:16:54.994Z,353.00
2023-03-02T03:19:25.566Z,407.33
2023-03-02T03:21:56.240Z,418.77
2023-03-02T03:24:25.101Z,310.50
2023-03-02T03:26:55.017Z,308.17
2023-03-02T03:29:24.799Z,369.70
2023-03-02T03:31:54.007Z,397.08
2023-03-02T03:34:22.589Z,380.13
2023-03-02T03:36:51.221Z,430.17
2023-03-02T03:39:20.214Z,314.92
2023-03-02T03:41:48.660Z,430.30
2023-03-02T03:44:18.498Z,472.45
2023-03-02T03:46:46.868Z,488.08
2023-03-02T03:49:15.529Z,477.45
2023-03-02T03:51:44.003Z,379.10
2023-03-02T03:54:12.968Z,408.95
2023-03-02T03:56:43.408Z,368.08
2023-03-02T03:59:13.952Z,480.55
2023-03-02T04:01:46.295Z,485.65
2023-03-02T04:04:17.394Z,488.73
2023-03-02T04:06:46.416Z,454.52
2023-03-02T04:09:15.590Z,531.83
2023-03-02T04:11:45.645Z,342.27
2023-03-02T04:14:14.879Z,515.30
2023-03-02T04:16:45.434Z,477.52
2023-03-02T04:19:15.213Z,422.00
2023-03-02T04:21:46.064Z,445.52
2023-03-02T04:24:15.185Z,496.77
2023-03-02T04:26:45.063Z,450.48
2023-03-02T04:29:14.838Z,429.20
2023-03-02T04:31:44.966Z,517.55
2023-03-02T04:34:16.381Z,497.27
2023-03-02T04:36:45.137Z,425.13
2023-03-02T04:39:15.373Z,410.60
2023-03-02T04:41:43.827Z,363.05
2023-03-02T04:44:12.515Z,417.23
2023-03-02T04:46:43.537Z,458.83
2023-03-02T04:49:14.978Z,365.88
2023-03-02T04:51:45.641Z,412.08
2023-03-02T04:54:17.872Z,463.95
2023-03-02T04:56:48.436Z,380.50
2023-03-02T04:59:17.382Z,436.42
2023-03-02T05:01:45.985Z,326.25
2023-03-02T05:04:15.868Z,400.50
2023-03-02T05:06:44.308Z,437.55
2023-03-02T05:09:12.941Z,358.15
2023-03-02T05:11:41.728Z,422.58
2023-03-02T05:14:23.286Z,302.25
2023-03-02T05:16:52.011Z,346.75
2023-03-02T05:19:24.657Z,382.55
2023-03-02T05:22:04.757Z,280.85
2023-03-02T05:24:46.728Z,385.85
2023-03-02T05:27:15.457Z,323.10
2023-03-02T05:29:49.503Z,259.98
2023-03-02T05:32:18.637Z,197.65
2023-03-02T05:34:48.915Z,276.80
2023-03-02T05:37:20.937Z,273.67
2023-03-02T05:39:58.819Z,199.90
2023-03-02T05:42:27.224Z,168.93
2023-03-02T05:44:55.669Z,305.58
2023-03-02T05:47:24.169Z,166.00
2023-03-02T05:49:53.872Z,192.15
2023-03-02T05:52:22.226Z,191.65
2023-03-02T05:54:50.657Z,285.70
2023-03-02T05:57:20.406Z,149.65
2023-03-02T05:59:50.998Z,249.25
2023-03-02T06:02:19.687Z,223.20
2023-03-02T06:04:48.445Z,163.98
2023-03-02T06:07:18.456Z,179.30
2023-03-02T06:09:46.899Z,187.32
2023-03-02T06:12:15.267Z,220.38
2023-03-02T06:14:43.858Z,181.85
2023-03-02T06:17:12.264Z,166.00
2023-03-02T06:19:40.646Z,133.13
2023-03-02T06:22:08.962Z,124.60
2023-03-02T06:24:39.360Z,187.15
2023-03-02T06:27:07.850Z,181.63
2023-03-02T06:29:36.228Z,199.10
2023-03-02T06:32:04.855Z,203.75
2023-03-02T06:34:35.411Z,135.15
2023-03-02T06:37:04.149Z,128.82
2023-03-02T06:39:32.974Z,219.35
2023-03-02T06:42:02.863Z,182.43
2023-03-02T06:44:31.385Z,205.38
2023-03-02T06:46:59.834Z,143.32
2023-03-02T06:49:28.450Z,143.93
2023-03-02T06:51:56.951Z,115.78
2023-03-02T06:54:25.418Z,173.35
2023-03-02T06:56:53.814Z,250.60
2023-03-02T06:59:24.043Z,328.40
2023-03-02T07:01:53.083Z,131.73
2023-03-02T07:04:21.500Z,262.42
2023-03-02T07:06:49.997Z,157.23
2023-03-02T07:09:18.733Z,244.77
2023-03-02T07:11:47.077Z,145.73
2023-03-02T07:14:15.662Z,141.70
2023-03-02T07:16:45.591Z,163.13
2023-03-02T07:19:14.151Z,154.13
2023-03-02T07:21:43.106Z,149.88
2023-03-02T07:24:11.483Z,194.57
2023-03-02T07:26:40.026Z,299.92
2023-03-02T07:29:08.402Z,197.13
2023-03-02T07:31:36.768Z,139.95
2023-03-02T07:34:06.754Z,121.38
2023-03-02T07:36:35.182Z,147.40
2023-03-02T07:39:04.314Z,271.52
2023-03-02T07:41:32.929Z,214.05
2023-03-02T07:44:01.740Z,284.30
2023-03-02T07:46:30.344Z,154.27
2023-03-02T07:48:59.776Z,112.40
2023-03-02T07:51:29.596Z,142.55
2023-03-02T07:53:58.074Z,206.27
2023-03-02T07:56:26.423Z,246.75
2023-03-02T07:58:54.810Z,285.27
2023-03-02T08:01:23.210Z,187.13
2023-03-02T08:03:51.662Z,284.08
2023-03-02T08:06:20.073Z,232.80
2023-03-02T08:08:50.022Z,204.52
2023-03-02T08:11:20.118Z,126.55
2023-03-02T08:13:48.748Z,146.50
2023-03-02T08:16:17.544Z,113.70
2023-03-02T08:18:46.164Z,114.95
2023-03-02T08:21:16.460Z,128.07
2023-03-02T08:23:45.032Z,123.57
2023-03-02T08:26:17.569Z,110.47
2023-03-02T08:28:46.596Z,89.15
2023-03-02T08:31:15.476Z,125.35
2023-03-02T08:33:45.869Z,208.52
2023-03-02T08:36:16.369Z,147.77
2023-03-02T08:38:45.282Z,173.70
2023-03-02T08:41:17.486Z,89.00
2023-03-02T08:43:46.063Z,241.38
2023-03-02T08:46:15.992Z,107.30
2023-03-02T08:48:44.678Z,97.40
2023-03-02T08:51:15.683Z,119.32
2023-03-02T08:53:46.259Z,127.45
2023-03-02T08:56:25.134Z,274.50
2023-03-02T08:58:54.766Z,159.40
2023-03-02T09:01:25.030Z,477.52
2023-03-02T09:03:53.803Z,420.13
2023-03-02T09:06:22.531Z,347.83
2023-03-02T09:08:51.253Z,311.27
2023-03-02T09:11:21.123Z,335.85
2023-03-02T09:13:49.621Z,311.77
2023-03-02T09:16:20.291Z,236.32
2023-03-02T09:18:48.824Z,324.85
2023-03-02T09:21:17.263Z,338.38
2023-03-02T09:23:45.742Z,328.15
2023-03-02T09:26:14.221Z,323.77
2023-03-02T09:28:43.999Z,422.35
2023-03-02T09:31:13.478Z,503.90
2023-03-02T09:33:41.898Z,432.15
2023-03-02T09:36:12.535Z,317.25
2023-03-02T09:38:40.952Z,527.55
2023-03-02T09:41:36.175Z,481.13
2023-03-02T09:44:17.453Z,625.92
2023-03-02T09:46:49.175Z,332.25
2023-03-02T09:49:25.892Z,326.35
2023-03-02T09:52:03.445Z,416.27
2023-03-02T09:54:32.421Z,292.67
2023-03-02T09:57:01.993Z,296.83
2023-03-02T09:59:34.360Z,303.83
2023-03-02T10:02:06.420Z,523.78
2023-03-02T10:04:39.531Z,412.98
2023-03-02T10:07:14.472Z,252.25
2023-03-02T10:09:43.341Z,426.45
2023-03-02T10:12:37.917Z,368.25
2023-03-02T10:15:13.898Z,341.77
2023-03-02T10:17:51.918Z,320.08
2023-03-02T10:20:25.337Z,498.20
2023-03-02T10:22:57.675Z,300.77
2023-03-02T10:25:34.263Z,267.20
2023-03-02T10:28:07.140Z,291.63
2023-03-02T10:30:38.817Z,311.48
2023-03-02T10:33:13.252Z,279.35
2023-03-02T10:35:48.207Z,244.18
2023-03-02T10:38:18.930Z,404.83
2023-03-02T10:40:49.302Z,274.15
2023-03-02T10:43:20.513Z,269.02
2023-03-02T10:46:00.384Z,271.85
2023-03-02T10:48:28.785Z,244.57
2023-03-02T10:50:58.439Z,223.77
2023-03-02T10:53:27.037Z,300.35
2023-03-02T10:55:55.645Z,281.08
2023-03-02T10:58:26.818Z,340.80
2023-03-02T11:01:01.260Z,440.15
2023-03-02T11:03:30.650Z,319.85
2023-03-02T11:06:00.443Z,243.57
2023-03-02T11:08:29.942Z,232.68
2023-03-02T11:11:01.220Z,328.08
2023-03-02T11:13:32.288Z,215.48
2023-03-02T11:16:03.452Z,276.05
2023-03-02T11:18:36.127Z,459.05
2023-03-02T11:21:07.534Z,300.13
2023-03-02T11:23:42.812Z,228.23
2023-03-02T11:26:19.508Z,317.73
2023-03-02T11:28:51.073Z,279.73
2023-03-02T11:31:27.397Z,339.35
2023-03-02T11:34:15.655Z,308.83
2023-03-02T11:36:53.829Z,299.60
2023-03-02T11:39:27.243Z,325.20
2023-03-02T11:41:56.934Z,476.58
2023-03-02T11:44:29.168Z,354.63
2023-03-02T11:47:02.497Z,259.48
2023-03-02T11:49:39.502Z,318.55
2023-03-02T11:52:10.336Z,303.55
2023-03-02T11:54:45.878Z,271.35
2023-03-02T11:57:22.302Z,235.07
2023-03-02T11:59:51.286Z,298.98
2023-03-02T12:02:21.683Z,389.98
2023-03-02T12:04:50.350Z,252.52
2023-03-02T12:07:23.307Z,459.20
2023-03-02T12:10:05.516Z,273.98
2023-03-02T12:12:42.140Z,251.93
2023-03-02T12:15:37.033Z,250.77
2023-03-02T12:18:17.314Z,484.42
2023-03-02T12:20:45.624Z,563.88
2023-03-02T12:23:24.496Z,561.25
2023-03-02T12:26:03.972Z,302.02
2023-03-02T12:28:34.900Z,266.17
2023-03-02T12:31:09.834Z,298.98
2023-03-02T12:33:47.105Z,246.73
2023-03-02T12:36:19.027Z,358.13
2023-03-02T12:38:59.595Z,353.88
2023-03-02T12:42:03.605Z,298.00
2023-03-02T12:44:43.886Z,288.67
2023-03-02T12:47:27.688Z,340.10
2023-03-02T12:49:59.332Z,323.23
2023-03-02T12:52:32.543Z,247.63
2023-03-02T12:55:03.928Z,313.48
2023-03-02T12:57:32.615Z,277.42
2023-03-02T13:00:03.044Z,249.25
2023-03-02T13:02:32.928Z,248.80
2023-03-02T13:05:05.268Z,434.60
2023-03-02T13:07:37.481Z,202.23
2023-03-02T13:10:11.216Z,255.52
2023-03-02T13:12:46.020Z,191.87
2023-03-02T13:15:17.419Z,244.82
2023-03-02T13:17:46.626Z,208.10
2023-03-02T13:20:17.720Z,290.55
2023-03-02T13:22:46.411Z,236.25
2023-03-02T13:25:24.776Z,257.92
2023-03-02T13:27:57.895Z,188.93
2023-03-02T13:30:28.565Z,184.02
2023-03-02T13:33:01.640Z,229.10
2023-03-02T13:35:33.001Z,297.23
2023-03-02T13:38:06.282Z,200.20
2023-03-02T13:40:40.819Z,178.15
2023-03-02T13:43:23.644Z,231.55
2023-03-02T13:45:56.713Z,182.68
2023-03-02T13:48:26.626Z,224.05
2023-03-02T13:51:00.846Z,255.00
2023-03-02T13:53:31.009Z,192.43
2023-03-02T13:56:01.199Z,198.18
2023-03-02T13:58:30.363Z,170.32
2023-03-02T14:00:58.866Z,164.90
2023-03-02T14:03:29.654Z,412.20
2023-03-02T14:06:01.000Z,207.55
2023-03-02T14:08:32.517Z,167.15
2023-03-02T14:11:02.031Z,196.43
2023-03-02T14:13:35.318Z,164.48
2023-03-02T14:16:03.782Z,151.07
2023-03-02T14:18:39.016Z,298.30
2023-03-02T14:21:13.632Z,352.40
2023-03-02T14:26:31.912Z,294.15
2023-03-02T14:29:06.201Z,134.65
2023-03-02T14:31:35.389Z,150.88
2023-03-02T14:34:04.267Z,110.57
2023-03-02T14:36:35.689Z,105.32
2023-03-02T14:39:06.165Z,159.82
2023-03-02T14:41:43.926Z,134.55
2023-03-02T14:44:20.095Z,212.25
2023-03-02T14:46:48.888Z,148.05
2023-03-02T14:49:17.615Z,138.55
2023-03-02T14:51:55.584Z,185.35
2023-03-02T14:54:27.108Z,137.45
2023-03-02T14:56:58.658Z,264.80
2023-03-02T14:59:31.839Z,164.00
2023-03-02T15:02:10.241Z,145.25
2023-03-02T15:04:44.725Z,198.65
2023-03-02T15:07:34.879Z,371.92
2023-03-02T15:10:03.492Z,201.93
2023-03-02T15:12:32.339Z,158.82
2023-03-02T15:15:04.037Z,275.35
2023-03-02T15:17:35.605Z,260.30
2023-03-02T15:20:17.050Z,135.50
2023-03-02T15:27:00.522Z,240.20
2023-03-02T15:33:02.479Z,320.08
2023-03-02T15:39:14.964Z,375.30
2023-03-02T15:54:34.046Z,205.60
2023-03-02T15:57:04.034Z,298.45
2023-03-02T15:59:32.993Z,163.70
2023-03-02T16:02:02.411Z,418.88
2023-03-02T16:04:31.930Z,195.52
2023-03-02T16:07:01.464Z,178.40
2023-03-02T16:09:31.135Z,169.38
2023-03-02T16:11:59.628Z,323.50
2023-03-02T16:14:30.019Z,230.32
2023-03-02T16:17:26.045Z,194.00
2023-03-02T16:20:27.880Z,202.63
2023-03-02T16:23:15.113Z,209.55
2023-03-02T16:25:47.828Z,224.32
2023-03-02T16:28:24.110Z,215.10
2023-03-02T16:30:54.173Z,280.90
2023-03-02T16:33:22.829Z,217.93
2023-03-02T16:36:03.007Z,218.98
2023-03-02T16:38:31.728Z,471.48
2023-03-02T16:41:07.957Z,220.65
2023-03-02T16:43:39.896Z,341.65
2023-03-02T16:46:09.737Z,237.15
2023-03-02T16:48:38.413Z,255.65
2023-03-02T16:51:07.247Z,300.00
2023-03-02T16:53:35.889Z,220.90
2023-03-02T16:56:04.493Z,213.88
2023-03-02T16:58:32.887Z,252.20
2023-03-02T17:01:01.841Z,273.45
2023-03-02T17:03:31.658Z,232.00
2023-03-02T17:06:02.273Z,241.80
2023-03-02T17:08:30.744Z,370.73
2023-03-02T17:11:02.212Z,176.35
2023-03-02T17:14:09.201Z,253.32
2023-03-02T17:16:48.060Z,291.65
2023-03-02T17:19:22.525Z,176.70
2023-03-02T17:21:58.384Z,208.18
2023-03-02T17:24:27.487Z,425.35
2023-03-02T17:26:56.583Z,214.38
2023-03-02T17:29:25.599Z,269.55
2023-03-02T17:31:57.744Z,256.33
2023-03-02T17:34:31.359Z,260.42
2023-03-02T17:37:00.754Z,328.05
2023-03-02T17:39:30.675Z,154.90
2023-03-02T17:42:04.135Z,185.90
2023-03-02T17:44:34.937Z,195.05
2023-03-02T17:47:05.354Z,282.38
2023-03-02T17:49:35.229Z,271.15
2023-03-02T17:52:03.794Z,290.42
2023-03-02T17:54:32.494Z,181.43
2023-03-02T17:57:01.088Z,184.45
2023-03-02T17:59:29.764Z,180.27
2023-03-02T18:01:58.535Z,294.83
2023-03-02T18:04:27.029Z,217.93
2023-03-02T18:07:01.653Z,235.98
2023-03-02T18:09:32.372Z,183.30
2023-03-02T18:12:02.623Z,299.70
2023-03-02T18:14:31.717Z,293.85
2023-03-02T18:17:00.501Z,216.68
2023-03-02T18:19:29.372Z,339.38
2023-03-02T18:22:00.617Z,329.15
2023-03-02T18:24:37.108Z,414.30
2023-03-02T18:27:13.194Z,342.13
2023-03-02T18:29:49.414Z,307.95
2023-03-02T18:32:18.447Z,305.35
2023-03-02T18:34:59.414Z,347.73
2023-03-02T18:37:37.298Z,363.15
2023-03-02T18:40:07.741Z,414.77
2023-03-02T18:42:36.300Z,388.00
2023-03-02T18:45:13.195Z,353.13
2023-03-02T18:47:41.839Z,435.30
2023-03-02T18:50:12.266Z,379.10
2023-03-02T18:52:42.385Z,402.17
2023-03-02T18:55:14.695Z,389.42
2023-03-02T18:57:44.693Z,391.33
2023-03-02T19:00:27.386Z,441.17
2023-03-02T19:03:06.098Z,425.08
2023-03-02T19:09:56.789Z,491.73
2023-03-02T19:12:27.420Z,523.13
2023-03-02T19:15:18.498Z,482.13
2023-03-02T19:18:08.571Z,471.58
2023-03-02T19:21:22.169Z,495.98
2023-03-02T19:28:05.536Z,438.10
2023-03-02T19:30:43.196Z,523.05
2023-03-02T19:39:47.230Z,199.35
2023-03-02T19:42:16.079Z,514.33
2023-03-02T19:44:52.534Z,529.00
2023-03-02T19:47:23.894Z,616.85
2023-03-02T19:49:58.444Z,529.95
2023-03-02T19:52:36.533Z,541.78
2023-03-02T19:55:12.825Z,445.25
2023-03-02T19:57:42.040Z,491.13
2023-03-02T20:00:21.013Z,502.40
2023-03-02T20:02:52.469Z,504.13
2023-03-02T20:05:32.381Z,499.05
2023-03-02T20:08:01.523Z,488.15
2023-03-02T20:10:34.046Z,504.73
2023-03-02T20:13:03.577Z,488.50
2023-03-02T20:15:59.971Z,527.40
2023-03-02T20:18:50.912Z,450.27
2023-03-02T20:21:19.916Z,537.50
2023-03-02T20:23:50.690Z,496.20
2023-03-02T20:26:19.941Z,543.08
2023-03-02T20:29:00.061Z,502.20
2023-03-02T20:31:38.396Z,389.10
2023-03-02T20:34:09.580Z,524.55
2023-03-02T20:36:39.293Z,460.88
2023-03-02T20:39:14.557Z,574.70
2023-03-02T20:41:47.642Z,521.47
2023-03-02T20:44:16.629Z,506.55
2023-03-02T20:46:51.393Z,521.08
2023-03-02T20:49:20.658Z,488.65
2023-03-02T20:51:53.042Z,522.95
2023-03-02T20:54:26.745Z,487.40
2023-03-02T20:57:00.490Z,499.97
2023-03-02T20:59:36.928Z,506.90
2023-03-02T21:02:13.607Z,413.40
2023-03-02T21:16:41.198Z,313.60
2023-03-02T21:19:44.982Z,529.47
2023-03-02T21:22:14.105Z,391.70
2023-03-02T21:24:48.749Z,257.58
2023-03-02T21:29:45.919Z,243.95
2023-03-02T21:32:18.497Z,390.17
2023-03-02T21:34:48.433Z,488.75
2023-03-02T21:37:17.106Z,394.55
2023-03-02T21:39:46.356Z,532.05
2023-03-02T21:42:16.348Z,551.80
2023-03-02T21:44:45.357Z,445.00
2023-03-02T21:47:13.965Z,534.80
2023-03-02T21:49:42.477Z,480.00
2023-03-02T21:52:12.521Z,480.35
2023-03-02T21:54:41.035Z,525.55
2023-03-02T21:57:47.922Z,496.98
2023-03-02T22:00:41.406Z,475.02
2023-03-02T22:03:10.321Z,550.38
2023-03-02T22:06:15.508Z,507.15
2023-03-02T22:10:24.693Z,536.78
2023-03-02T22:25:55.955Z,443.83
2023-03-02T22:29:15.206Z,422.05
2023-03-02T22:31:50.890Z,511.48
2023-03-02T22:37:24.443Z,445.73
2023-03-02T22:40:05.958Z,412.65
2023-03-02T22:43:01.226Z,439.90
2023-03-02T22:45:39.223Z,465.65
2023-03-02T22:48:47.631Z,426.15
2023-03-02T22:51:45.340Z,355.98
2023-03-02T22:54:30.358Z,363.58
2023-03-02T23:00:58.139Z,302.63
2023-03-02T23:03:34.698Z,379.88
2023-03-02T23:06:03.249Z,398.83
2023-03-02T23:08:32.689Z,386.42
2023-03-02T23:11:01.246Z,334.17
2023-03-02T23:13:37.794Z,330.63
2023-03-02T23:16:15.780Z,350.60
2023-03-02T23:18:44.642Z,368.33
2023-03-02T23:21:25.188Z,337.30
2023-03-02T23:24:08.612Z,354.58
2023-03-02T23:26:40.172Z,371.17
2023-03-02T23:32:26.530Z,333.98
2023-03-02T23:34:59.977Z,347.80
2023-03-02T23:37:31.539Z,390.90
2023-03-02T23:40:09.831Z,350.52
2023-03-02T23:42:45.205Z,385.33
2023-03-02T23:45:17.207Z,418.33
2023-03-02T23:48:17.748Z,413.15
2023-03-02T23:50:46.678Z,378.80
2023-03-02T23:53:35.527Z,435.98
2023-03-02T23:56:04.221Z,391.23
2023-03-02T23:58:42.883Z,412.23
